createdAt,value
2019-01-12T00:02:53.905Z,6.33
2019-01-12T00:07:57.433Z,8.47
2019-01-12T00:13:00.881Z,4.73
2019-01-12T00:18:04.618Z,3.93
2019-01-12T00:23:08.062Z,5.43
2019-01-12T00:28:11.527Z,3.23
2019-01-12T00:33:15.008Z,3.73
2019-01-12T00:38:18.464Z,6.57
2019-01-12T00:43:21.907Z,4.83
2019-01-12T00:48:25.363Z,8.00
2019-01-12T00:53:28.994Z,6.20
2019-01-12T00:58:32.776Z,2.30
2019-01-12T01:03:38.193Z,5.80
2019-01-12T01:08:41.339Z,4.73
2019-01-12T01:13:44.862Z,2.43
2019-01-12T01:18:48.403Z,2.87
2019-01-12T01:23:51.915Z,4.77
2019-01-12T01:28:55.355Z,2.57
2019-01-12T01:33:58.824Z,5.00
2019-01-12T01:39:02.259Z,6.70
2019-01-12T01:44:06.082Z,7.30
2019-01-12T01:49:09.684Z,3.87
2019-01-12T01:54:13.289Z,4.57
2019-01-12T01:59:16.723Z,3.47
2019-01-12T02:04:20.356Z,11.43
2019-01-12T02:09:23.799Z,7.30
2019-01-12T02:14:27.267Z,6.83
2019-01-12T02:19:30.699Z,7.50
2019-01-12T02:24:34.142Z,5.27
2019-01-12T02:29:37.597Z,7.10
2019-01-12T02:34:41.457Z,5.17
2019-01-12T02:39:44.991Z,6.33
2019-01-12T02:44:48.410Z,8.80
2019-01-12T02:49:51.950Z,6.77
2019-01-12T02:54:56.016Z,11.60
2019-01-12T02:59:59.739Z,8.60
2019-01-12T03:05:03.608Z,6.47
2019-01-12T03:10:10.060Z,9.27
2019-01-12T03:15:17.538Z,6.57
2019-01-12T03:20:21.056Z,4.73
2019-01-12T03:25:24.559Z,3.30
2019-01-12T03:30:28.000Z,5.83
2019-01-12T03:35:31.424Z,3.40
2019-01-12T03:40:35.047Z,5.57
2019-01-12T03:45:41.337Z,7.40
2019-01-12T03:50:44.758Z,4.83
2019-01-12T03:55:48.204Z,5.30
2019-01-12T04:00:51.658Z,4.13
2019-01-12T04:05:55.151Z,3.33
2019-01-12T04:10:58.649Z,3.53
2019-01-12T04:16:02.433Z,6.10
2019-01-12T04:21:06.158Z,4.73
2019-01-12T04:26:09.634Z,3.67
2019-01-12T04:31:13.251Z,9.00
2019-01-12T04:36:16.782Z,4.10
2019-01-12T04:41:20.228Z,4.07
2019-01-12T04:46:23.706Z,5.87
2019-01-12T04:51:27.544Z,3.17
2019-01-12T04:56:30.986Z,4.03
2019-01-12T05:01:34.431Z,11.67
2019-01-12T05:06:37.895Z,5.43
2019-01-12T05:11:41.329Z,3.90
2019-01-12T05:16:44.759Z,3.27
2019-01-12T05:21:48.281Z,4.40
2019-01-12T05:26:51.767Z,4.80
2019-01-12T05:31:55.573Z,4.60
2019-01-12T05:36:59.034Z,5.53
2019-01-12T05:42:02.796Z,4.07
2019-01-12T05:47:06.241Z,7.57
2019-01-12T05:52:09.687Z,2.93
2019-01-12T05:57:13.127Z,14.47
2019-01-12T06:02:16.611Z,6.70
2019-01-12T06:07:20.080Z,5.87
2019-01-12T06:12:23.573Z,6.90
2019-01-12T06:17:27.468Z,9.80
2019-01-12T06:22:30.925Z,7.27
2019-01-12T06:27:34.381Z,9.00
2019-01-12T06:32:37.837Z,6.73
2019-01-12T06:37:41.266Z,5.93
2019-01-12T06:42:44.769Z,5.70
2019-01-12T06:47:48.212Z,7.73
2019-01-12T06:52:51.658Z,8.37
2019-01-12T06:57:55.084Z,5.93
2019-01-12T07:02:58.526Z,7.07
2019-01-12T07:08:01.980Z,7.97
2019-01-12T07:13:05.421Z,9.30
2019-01-12T07:18:09.116Z,11.17
2019-01-12T07:23:12.560Z,12.63
2019-01-12T07:28:16.014Z,13.17
2019-01-12T07:33:19.452Z,14.07
2019-01-12T07:38:22.887Z,12.40
2019-01-12T07:43:26.330Z,12.73
2019-01-12T07:48:29.802Z,14.20
2019-01-12T07:53:33.230Z,13.33
2019-01-12T07:58:36.690Z,15.53
2019-01-12T08:03:40.194Z,16.27
2019-01-12T08:08:43.633Z,16.77
2019-01-12T08:13:47.091Z,21.27
2019-01-12T08:18:50.522Z,21.47
2019-01-12T08:23:53.977Z,21.57
2019-01-12T08:28:57.410Z,21.93
2019-01-12T08:34:00.863Z,21.80
2019-01-12T08:39:06.390Z,18.30
2019-01-12T08:44:10.125Z,24.00
2019-01-12T08:49:13.574Z,22.60
2019-01-12T08:54:17.034Z,19.50
2019-01-12T08:59:22.122Z,20.83
2019-01-12T09:04:25.544Z,21.80
2019-01-12T09:09:28.977Z,25.53
2019-01-12T09:14:32.417Z,20.07
2019-01-12T09:19:35.852Z,20.90
2019-01-12T09:24:39.288Z,20.67
2019-01-12T09:29:42.732Z,20.00
2019-01-12T09:34:46.246Z,24.70
2019-01-12T09:39:49.807Z,26.53
2019-01-12T09:44:53.183Z,26.20
2019-01-12T09:49:56.616Z,25.77
2019-01-12T09:55:00.042Z,35.57
2019-01-12T10:00:05.739Z,27.00
2019-01-12T10:05:09.603Z,37.63
2019-01-12T10:10:19.832Z,28.47
2019-01-12T10:15:23.491Z,32.03
2019-01-12T10:20:29.990Z,29.97
2019-01-12T10:25:33.504Z,38.73
2019-01-12T10:30:36.938Z,38.10
2019-01-12T10:35:40.387Z,38.53
2019-01-12T10:40:44.451Z,41.27
2019-01-12T10:45:47.883Z,46.90
2019-01-12T10:50:51.336Z,47.20
2019-01-12T10:55:54.784Z,45.17
2019-01-12T11:00:58.226Z,42.87
2019-01-12T11:06:01.679Z,48.00
2019-01-12T11:11:05.678Z,45.90
2019-01-12T11:16:09.117Z,50.07
2019-01-12T11:21:12.651Z,51.43
2019-01-12T11:26:16.101Z,47.70
2019-01-12T11:31:20.014Z,56.07
2019-01-12T11:36:23.576Z,57.40
2019-01-12T11:41:26.999Z,48.97
2019-01-12T11:46:30.454Z,52.37
2019-01-12T11:51:33.970Z,51.30
2019-01-12T11:56:37.400Z,53.20
2019-01-12T12:01:40.836Z,49.97
2019-01-12T12:06:44.292Z,57.80
2019-01-12T12:11:47.738Z,48.63
2019-01-12T12:16:51.189Z,58.10
2019-01-12T12:21:54.637Z,49.97
2019-01-12T12:26:58.079Z,48.30
2019-01-12T12:32:01.524Z,48.53
2019-01-12T12:37:04.970Z,50.40
2019-01-12T12:42:08.407Z,45.43
2019-01-12T12:47:11.924Z,47.17
2019-01-12T12:52:15.417Z,39.33
2019-01-12T12:57:18.881Z,35.17
2019-01-12T13:02:22.326Z,37.10
2019-01-12T13:07:25.753Z,30.47
2019-01-12T13:12:29.379Z,35.40
2019-01-12T13:17:32.833Z,29.37
2019-01-12T13:22:36.275Z,26.43
2019-01-12T13:27:40.168Z,26.37
2019-01-12T13:32:43.748Z,24.43
2019-01-12T13:37:47.777Z,29.53
2019-01-12T13:42:51.225Z,26.57
2019-01-12T13:47:54.835Z,23.93
2019-01-12T13:52:58.298Z,20.27
2019-01-12T13:58:01.719Z,22.90
2019-01-12T14:03:06.423Z,21.13
2019-01-12T14:08:09.855Z,20.23
2019-01-12T14:13:13.290Z,20.33
2019-01-12T14:18:22.615Z,18.43
2019-01-12T14:23:22.128Z,20.23
2019-01-12T14:28:25.537Z,17.60
2019-01-12T14:33:28.993Z,17.53
2019-01-12T14:38:33.899Z,15.90
2019-01-12T14:43:37.459Z,16.13
2019-01-12T14:48:40.870Z,15.10
2019-01-12T14:53:44.284Z,17.47
2019-01-12T14:58:47.742Z,14.87
2019-01-12T15:03:51.194Z,15.87
2019-01-12T15:08:54.625Z,17.60
2019-01-12T15:13:58.055Z,16.00
2019-01-12T15:19:01.490Z,14.33
2019-01-12T15:24:05.133Z,17.73
2019-01-12T15:29:08.628Z,15.40
2019-01-12T15:34:12.002Z,13.67
2019-01-12T15:39:15.446Z,27.13
2019-01-12T15:44:18.883Z,14.20
2019-01-12T15:49:22.319Z,15.70
2019-01-12T15:54:25.766Z,12.23
2019-01-12T15:59:29.201Z,13.23
2019-01-12T16:04:32.647Z,12.20
2019-01-12T16:09:36.101Z,11.87
2019-01-12T16:14:39.504Z,11.30
2019-01-12T16:19:42.947Z,10.87
2019-01-12T16:24:46.650Z,9.27
2019-01-12T16:29:50.094Z,8.03
2019-01-12T16:34:53.531Z,10.57
2019-01-12T16:39:56.978Z,8.30
2019-01-12T16:45:00.422Z,10.07
2019-01-12T16:50:07.539Z,8.43
2019-01-12T16:55:13.121Z,11.10
2019-01-12T17:00:19.229Z,9.00
2019-01-12T17:05:22.987Z,5.67
2019-01-12T17:10:26.500Z,9.80
2019-01-12T17:15:34.673Z,7.97
2019-01-12T17:20:35.106Z,9.13
2019-01-12T17:25:38.525Z,11.17
2019-01-12T17:30:41.952Z,8.50
2019-01-12T17:35:45.455Z,12.17
2019-01-12T17:40:48.893Z,8.40
2019-01-12T17:45:52.314Z,9.00
2019-01-12T17:50:55.754Z,10.77
2019-01-12T17:55:59.193Z,13.53
2019-01-12T18:01:02.639Z,15.50
2019-01-12T18:06:06.157Z,9.83
2019-01-12T18:11:09.644Z,10.50
2019-01-12T18:16:13.099Z,16.93
2019-01-12T18:21:16.624Z,7.57
2019-01-12T18:26:20.080Z,13.07
2019-01-12T18:31:23.578Z,9.33
2019-01-12T18:36:27.004Z,11.37
2019-01-12T18:41:30.565Z,10.20
2019-01-12T18:46:33.981Z,8.37
2019-01-12T18:51:37.426Z,13.43
2019-01-12T18:56:40.937Z,11.87
2019-01-12T19:01:44.414Z,13.97
2019-01-12T19:06:47.856Z,10.23
2019-01-12T19:11:51.561Z,6.17
2019-01-12T19:16:55.835Z,4.23
2019-01-12T19:22:00.532Z,7.63
2019-01-12T19:27:04.184Z,18.37
2019-01-12T19:32:07.629Z,5.13
2019-01-12T19:37:11.064Z,13.20
2019-01-12T19:42:15.642Z,17.53
2019-01-12T19:47:19.201Z,8.03
2019-01-12T19:52:22.654Z,18.23
2019-01-12T19:57:26.162Z,14.60
2019-01-12T20:02:29.675Z,5.13
2019-01-12T20:07:33.088Z,3.70
2019-01-12T20:12:36.652Z,2.37
2019-01-12T20:17:40.110Z,1.90
2019-01-12T20:22:43.623Z,2.17
2019-01-12T20:27:47.048Z,13.27
2019-01-12T20:33:10.082Z,3.67
2019-01-12T20:38:21.996Z,3.33
2019-01-12T20:43:30.970Z,1.30
2019-01-12T20:48:52.238Z,4.63
2019-01-12T20:54:04.320Z,2.97
2019-01-12T20:59:28.093Z,3.90
2019-01-12T21:04:53.339Z,3.83
2019-01-12T21:10:08.803Z,8.03
2019-01-12T21:15:15.900Z,4.57
2019-01-12T21:20:19.296Z,9.13
2019-01-12T21:25:22.740Z,11.83
2019-01-12T21:30:26.178Z,10.93
2019-01-12T21:35:29.600Z,9.83
2019-01-12T21:40:33.064Z,10.67
2019-01-12T21:45:36.589Z,6.77
2019-01-12T21:50:40.103Z,6.97
2019-01-12T21:55:43.545Z,4.50
2019-01-12T22:00:47.001Z,4.23
2019-01-12T22:05:50.429Z,8.13
2019-01-12T22:10:53.872Z,5.83
2019-01-12T22:15:57.306Z,6.57
2019-01-12T22:21:00.735Z,7.57
2019-01-12T22:26:04.162Z,9.83
2019-01-12T22:31:07.584Z,10.07
2019-01-12T22:36:11.031Z,14.73
2019-01-12T22:41:14.471Z,6.57
2019-01-12T22:46:17.901Z,11.43
2019-01-12T22:51:21.389Z,6.90
2019-01-12T22:56:24.845Z,12.47
2019-01-12T23:01:31.423Z,10.60
2019-01-12T23:06:37.735Z,8.00
2019-01-12T23:11:41.184Z,19.83
2019-01-12T23:16:44.618Z,10.27
2019-01-12T23:21:48.359Z,11.83
2019-01-12T23:26:51.794Z,9.53
2019-01-12T23:31:55.285Z,11.07
2019-01-12T23:36:58.725Z,11.93
2019-01-12T23:42:02.179Z,10.00
2019-01-12T23:47:05.634Z,7.00
2019-01-12T23:52:09.061Z,11.93
2019-01-12T23:57:12.549Z,11.47
